Time;durP1;ratioP1;P1;durP2;ratioP2;P2;SDS_P1;SDS_P2;PMS_P1;PMS_P2;Temp;Humidity;BMP_temperature;BMP_pressure;BME280_temperature;BME280_humidity;BME280_pressure;Samples;Min_cycle;Max_cycle;Signal;HPM_P1;HPM_P2
2023/07/15 00:01:20;;;;;;;6.65;2.80;;;;;;;23.44;50.98;99353.06;6068482;23;20077;-88
2023/07/15 00:03:47;;;;;;;5.30;3.17;;;;;;;23.45;51.45;99356.59;6066994;23;20391;-88
2023/07/15 00:06:16;;;;;;;8.32;2.72;;;;;;;23.39;51.24;99344.81;6067522;23;20454;-89
2023/07/15 00:08:44;;;;;;;7.35;3.22;;;;;;;23.39;51.03;99348.34;6091353;23;20025;-87
2023/07/15 00:11:20;;;;;;;8.10;3.10;;;;;;;23.31;50.31;99351.38;6068416;23;20080;-88
2023/07/15 00:13:47;;;;;;;5.53;3.10;;;;;;;23.32;50.88;99354.91;6068012;23;20033;-87
2023/07/15 00:16:14;;;;;;;4.32;3.30;;;;;;;23.30;50.56;99346.19;6067753;23;20077;-88
2023/07/15 00:18:41;;;;;;;3.92;3.00;;;;;;;23.29;49.91;99353.50;6068193;23;20014;-87
2023/07/15 00:21:20;;;;;;;3.33;3.03;;;;;;;23.26;48.93;99345.00;6021595;23;20021;-88
2023/07/15 00:23:55;;;;;;;7.50;3.38;;;;;;;23.32;49.00;99358.44;6043708;23;20457;-87
2023/07/15 00:26:23;;;;;;;8.07;3.53;;;;;;;23.34;48.81;99347.38;6044148;23;20021;-88
2023/07/15 00:28:50;;;;;;;4.28;3.00;;;;;;;23.32;48.55;99358.44;6068474;23;20013;-89
2023/07/15 00:31:18;;;;;;;4.50;2.92;;;;;;;23.33;48.46;99356.56;6066647;23;20096;-87
2023/07/15 00:33:46;;;;;;;8.70;3.00;;;;;;;23.32;48.61;99358.44;6090975;23;20080;-87
2023/07/15 00:36:14;;;;;;;3.92;2.90;;;;;;;23.31;48.61;99355.97;6066980;23;20025;-87
2023/07/15 00:38:42;;;;;;;3.95;2.70;;;;;;;23.31;48.69;99358.69;6044433;23;20026;-87
2023/07/15 00:41:17;;;;;;;4.95;3.10;;;;;;;23.23;49.04;99359.00;6043684;23;20026;-88
2023/07/15 00:43:58;;;;;;;3.72;3.20;;;;;;;23.18;49.02;99349.69;6066686;23;20390;-87
2023/07/15 00:46:49;;;;;;;4.85;3.00;;;;;;;23.22;49.02;99357.34;6067145;23;20014;-88
2023/07/15 00:49:22;;;;;;;4.57;3.17;;;;;;;23.17;48.97;99353.44;6066914;23;20022;-87
2023/07/15 00:52:11;;;;;;;6.03;2.55;;;;;;;23.05;49.73;99355.31;6068007;23;20041;-88
2023/07/15 00:54:41;;;;;;;3.70;2.80;;;;;;;23.16;49.05;99357.22;6018331;23;20022;-87
2023/07/15 00:57:09;;;;;;;4.97;2.80;;;;;;;23.15;48.93;99363.72;6043544;23;20029;-88
2023/07/15 00:59:39;;;;;;;3.10;2.60;;;;;;;23.07;49.28;99353.16;6044696;23;20018;-88
2023/07/15 01:02:10;;;;;;;4.90;2.90;;;;;;;23.07;49.16;99361.28;6066539;23;20029;-87
2023/07/15 01:04:37;;;;;;;6.75;3.33;;;;;;;23.06;49.06;99359.66;6067150;23;20053;-88
2023/07/15 01:07:07;;;;;;;3.53;2.90;;;;;;;23.04;49.20;99360.94;6090859;23;20311;-88
2023/07/15 01:09:36;;;;;;;4.10;2.92;;;;;;;23.03;48.92;99360.13;6067597;23;20022;-88
2023/07/15 01:12:04;;;;;;;6.68;3.25;;;;;;;23.03;49.22;99362.81;6044199;23;20525;-89
2023/07/15 01:14:31;;;;;;;3.38;3.08;;;;;;;22.98;49.69;99359.16;6042973;23;20032;-87
2023/07/15 01:16:58;;;;;;;4.30;2.95;;;;;;;22.99;49.74;99364.31;6091773;23;20033;-88
2023/07/15 01:19:25;;;;;;;10.02;3.60;;;;;;;22.98;49.57;99362.69;6042701;23;20037;-88
2023/07/15 01:21:52;;;;;;;4.47;3.00;;;;;;;23.01;49.21;99373.06;6066580;23;20054;-87
2023/07/15 01:24:20;;;;;;;5.07;3.15;;;;;;;22.99;49.27;99356.19;6044107;23;20033;-89
2023/07/15 01:26:58;;;;;;;5.88;3.00;;;;;;;22.95;49.22;99365.81;6043330;23;20018;-88
2023/07/15 01:29:25;;;;;;;6.97;3.75;;;;;;;22.99;49.14;99360.78;6066643;23;20017;-87
2023/07/15 01:31:51;;;;;;;6.25;3.38;;;;;;;22.98;49.23;99365.38;6043556;23;20018;-88
2023/07/15 01:34:19;;;;;;;4.90;3.33;;;;;;;22.95;49.00;99371.25;6067331;23;20383;-88
2023/07/15 01:36:47;;;;;;;4.40;3.60;;;;;;;22.95;48.99;99368.53;6067464;23;20134;-87
2023/07/15 01:39:15;;;;;;;5.00;3.08;;;;;;;22.90;49.03;99369.19;6019631;23;20879;-88
2023/07/15 01:41:43;;;;;;;4.03;2.88;;;;;;;22.88;48.89;99371.31;6067337;23;20028;-88
2023/07/15 01:44:11;;;;;;;3.45;3.10;;;;;;;22.85;49.33;99366.34;6067158;23;20089;-87
2023/07/15 01:46:39;;;;;;;5.03;3.00;;;;;;;22.83;49.54;99365.75;6066027;23;20045;-88
2023/07/15 01:49:08;;;;;;;6.05;3.40;;;;;;;22.84;49.32;99369.28;6067001;23;20030;-88
2023/07/15 01:51:35;;;;;;;5.90;3.13;;;;;;;22.81;49.60;99367.03;6067841;23;20029;-88
2023/07/15 01:54:02;;;;;;;5.80;3.60;;;;;;;22.80;49.62;99370.81;6090496;23;20093;-88
2023/07/15 01:56:30;;;;;;;4.72;2.90;;;;;;;22.78;49.72;99370.19;6042810;23;20316;-88
2023/07/15 01:58:56;;;;;;;3.60;3.15;;;;;;;22.76;49.70;99362.28;6090434;23;20018;-88
2023/07/15 02:01:24;;;;;;;3.72;3.20;;;;;;;22.73;49.82;99373.56;6090942;23;20033;-88
2023/07/15 02:03:51;;;;;;;3.88;3.28;;;;;;;22.72;50.01;99367.34;6066589;23;20026;-88
2023/07/15 02:06:18;;;;;;;7.65;3.67;;;;;;;22.69;50.05;99356.94;6043355;23;20104;-87
2023/07/15 02:08:45;;;;;;;5.45;3.60;;;;;;;22.65;50.10;99366.59;6066348;23;20057;-87
2023/07/15 02:11:12;;;;;;;3.13;2.83;;;;;;;22.64;50.17;99356.78;6067638;23;20383;-88
2023/07/15 02:13:39;;;;;;;4.85;3.47;;;;;;;22.64;50.37;99355.97;6044637;23;20081;-87
2023/07/15 02:16:06;;;;;;;4.45;3.25;;;;;;;22.63;50.38;99357.03;6066084;23;20026;-87
2023/07/15 02:18:33;;;;;;;5.05;3.50;;;;;;;22.61;50.07;99356.44;6089786;23;20443;-88
2023/07/15 02:21:01;;;;;;;5.35;3.35;;;;;;;22.61;50.09;99353.72;6067510;23;20091;-88
2023/07/15 02:23:29;;;;;;;5.25;3.47;;;;;;;22.59;50.38;99358.53;6043245;23;20041;-87
2023/07/15 02:25:56;;;;;;;3.42;2.85;;;;;;;22.59;50.68;99350.41;6067009;23;20104;-88
2023/07/15 02:28:26;;;;;;;7.28;3.10;;;;;;;22.55;50.20;99347.34;6043482;23;20036;-87
2023/07/15 02:30:55;;;;;;;5.88;3.78;;;;;;;22.53;50.39;99342.16;6067207;23;20418;-88
2023/07/15 02:33:23;;;;;;;5.93;3.28;;;;;;;22.52;50.42;99331.56;6066812;23;20350;-87
2023/07/15 02:35:50;;;;;;;6.07;3.17;;;;;;;22.53;50.41;99327.78;6090507;23;20037;-87
2023/07/15 02:38:18;;;;;;;5.45;3.00;;;;;;;22.50;50.41;99320.97;6066367;23;20033;-87
2023/07/15 02:40:48;;;;;;;4.55;3.33;;;;;;;22.49;50.64;99318.47;6067766;23;20068;-87
2023/07/15 02:43:15;;;;;;;4.70;3.30;;;;;;;22.46;50.71;99316.22;6019732;23;20029;-87
2023/07/15 02:45:42;;;;;;;4.95;2.80;;;;;;;22.45;50.86;99320.00;6115952;23;20084;-87
2023/07/15 02:48:10;;;;;;;6.78;3.58;;;;;;;22.42;50.74;99323.16;6042918;23;20029;-87
2023/07/15 02:50:37;;;;;;;8.13;3.17;;;;;;;22.37;50.88;99314.88;6066902;23;20477;-88
2023/07/15 02:53:04;;;;;;;6.35;3.53;;;;;;;22.33;50.86;99315.31;6066953;23;20339;-88
2023/07/15 02:55:31;;;;;;;9.50;3.85;;;;;;;22.36;50.90;99321.34;6067601;23;20026;-87
2023/07/15 02:57:58;;;;;;;4.32;3.35;;;;;;;22.33;50.89;99323.44;6068714;23;20048;-87
2023/07/15 03:00:26;;;;;;;4.47;3.03;;;;;;;22.33;51.28;99334.25;6092754;23;20021;-87
2023/07/15 03:02:53;;;;;;;4.57;3.50;;;;;;;22.32;50.93;99327.19;6068310;23;20065;-88
2023/07/15 03:05:20;;;;;;;7.07;3.20;;;;;;;22.29;51.19;99329.53;6021042;23;20025;-88
2023/07/15 03:07:47;;;;;;;5.72;3.47;;;;;;;22.28;51.31;99325.97;6045151;23;20022;-87
2023/07/15 03:10:15;;;;;;;4.93;3.22;;;;;;;22.28;51.34;99330.56;6068092;23;20390;-88
2023/07/15 03:12:47;;;;;;;4.18;3.03;;;;;;;22.23;51.28;99333.13;6045242;23;20030;-88
2023/07/15 03:15:15;;;;;;;6.90;3.53;;;;;;;22.24;51.40;99337.50;6021967;23;20025;-88
2023/07/15 03:17:42;;;;;;;3.88;3.10;;;;;;;22.24;51.41;99335.63;6068049;23;20096;-87
2023/07/15 03:20:19;;;;;;;4.00;3.55;;;;;;;22.16;51.72;99326.91;6044039;23;20029;-88
2023/07/15 03:22:49;;;;;;;6.05;3.25;;;;;;;22.18;51.73;99331.06;6068750;23;20032;-87
2023/07/15 03:25:16;;;;;;;4.05;3.15;;;;;;;22.15;51.77;99336.91;6092317;23;20137;-87
2023/07/15 03:27:45;;;;;;;4.60;3.20;;;;;;;22.12;51.89;99329.25;6044282;23;20030;-87
2023/07/15 03:30:12;;;;;;;4.03;3.42;;;;;;;22.14;51.75;99327.16;6091822;23;20510;-87
2023/07/15 03:32:40;;;;;;;4.47;3.10;;;;;;;22.15;51.77;99330.69;6091424;23;20049;-87
2023/07/15 03:35:12;;;;;;;5.25;3.47;;;;;;;22.10;51.87;99331.34;6067809;23;20049;-88
2023/07/15 03:37:41;;;;;;;6.37;4.67;;;;;;;22.08;52.14;99331.59;6021500;23;20382;-88
2023/07/15 03:40:10;;;;;;;5.40;3.50;;;;;;;22.08;52.03;99330.72;6043645;23;20025;-88
2023/07/15 03:42:38;;;;;;;5.07;3.45;;;;;;;22.10;52.15;99334.88;6088700;23;20369;-88
2023/07/15 03:45:06;;;;;;;4.68;3.35;;;;;;;22.09;52.00;99332.41;6090800;23;20093;-88
2023/07/15 03:47:36;;;;;;;7.18;3.90;;;;;;;22.08;52.35;99336.13;6091256;23;20022;-87
2023/07/15 03:50:05;;;;;;;3.75;3.28;;;;;;;22.04;52.63;99340.38;6068965;23;20030;-87
2023/07/15 03:52:32;;;;;;;5.03;3.55;;;;;;;22.04;52.58;99337.66;6044300;23;20472;-87
2023/07/15 03:54:59;;;;;;;4.72;3.78;;;;;;;22.02;52.61;99340.56;6044753;23;20093;-87
2023/07/15 03:57:26;;;;;;;5.10;3.65;;;;;;;22.04;52.37;99335.78;6067551;23;20033;-87
2023/07/15 03:59:53;;;;;;;5.60;3.88;;;;;;;22.14;52.92;99337.16;6066596;23;20068;-87
2023/07/15 04:02:20;;;;;;;5.85;3.97;;;;;;;22.78;53.18;99338.53;6020467;23;20026;-88
2023/07/15 04:04:47;;;;;;;6.07;3.90;;;;;;;23.72;52.35;99325.34;6091255;23;20049;-87
2023/07/15 04:07:16;;;;;;;6.03;3.40;;;;;;;24.65;50.57;99322.81;6067530;23;20080;-87
2023/07/15 04:09:42;;;;;;;4.85;3.80;;;;;;;25.52;48.67;99324.50;6066203;23;20045;-87
2023/07/15 04:12:09;;;;;;;5.65;3.67;;;;;;;26.30;47.04;99309.09;6042914;23;20026;-87
2023/07/15 04:14:36;;;;;;;5.35;3.75;;;;;;;26.97;45.49;99310.75;6066956;23;20044;-87
2023/07/15 04:17:03;;;;;;;5.00;3.72;;;;;;;27.41;43.54;99302.50;6091377;23;20035;-88
2023/07/15 04:19:30;;;;;;;4.93;3.85;;;;;;;27.55;42.44;99302.88;6090957;23;20033;-87
2023/07/15 04:21:57;;;;;;;4.32;3.92;;;;;;;27.23;42.25;99298.25;6067006;23;20029;-87
2023/07/15 04:24:24;;;;;;;5.32;3.85;;;;;;;26.80;43.12;99305.38;6042254;23;20022;-87
2023/07/15 04:26:51;;;;;;;7.15;4.28;;;;;;;26.51;43.72;99303.91;6067237;23;20507;-87
2023/07/15 04:29:18;;;;;;;5.30;4.07;;;;;;;26.04;44.26;99296.22;6091385;23;20219;-87
2023/07/15 04:31:45;;;;;;;4.88;3.83;;;;;;;25.61;44.54;99301.25;6068269;23;20013;-87
2023/07/15 04:34:12;;;;;;;5.45;4.20;;;;;;;25.28;45.33;99294.72;6067223;23;20025;-86
2023/07/15 04:36:39;;;;;;;6.38;3.97;;;;;;;25.03;45.79;99292.31;6066836;23;20335;-87
2023/07/15 04:39:06;;;;;;;4.35;3.95;;;;;;;24.87;46.21;99296.66;6091268;23;20354;-87
2023/07/15 04:41:33;;;;;;;7.10;4.05;;;;;;;24.72;46.58;99293.66;6067492;23;20073;-86
2023/07/15 04:44:01;;;;;;;4.70;4.20;;;;;;;24.65;46.82;99293.81;6042448;23;20327;-87
2023/07/15 04:46:28;;;;;;;5.88;4.55;;;;;;;24.53;46.69;99293.00;6067505;23;20098;-87
2023/07/15 04:48:55;;;;;;;7.30;4.25;;;;;;;24.36;46.91;99295.59;6067794;23;20013;-87
2023/07/15 04:51:22;;;;;;;5.38;4.18;;;;;;;24.26;47.44;99295.38;6091417;23;20042;-88
2023/07/15 04:53:49;;;;;;;9.32;4.20;;;;;;;24.18;47.69;99309.31;6020068;23;20014;-88
2023/07/15 04:56:16;;;;;;;5.13;3.90;;;;;;;24.02;47.91;99300.84;6066069;23;20026;-88
2023/07/15 04:58:43;;;;;;;6.30;4.47;;;;;;;23.92;48.22;99313.34;6067045;23;20033;-88
2023/07/15 05:01:10;;;;;;;8.57;4.28;;;;;;;23.85;48.46;99315.34;6044401;23;20018;-88
2023/07/15 05:03:37;;;;;;;6.95;3.95;;;;;;;23.73;48.50;99312.63;6066613;23;20526;-88
2023/07/15 05:06:03;;;;;;;6.68;4.22;;;;;;;23.65;48.84;99313.75;6019752;23;20084;-88
2023/07/15 05:08:30;;;;;;;5.82;4.10;;;;;;;23.63;49.22;99313.16;6043627;23;20021;-87
2023/07/15 05:10:57;;;;;;;7.22;4.47;;;;;;;23.58;49.19;99313.03;6042423;23;20395;-87
2023/07/15 05:13:25;;;;;;;6.78;4.35;;;;;;;23.53;49.54;99318.31;6066647;23;20138;-88
2023/07/15 05:15:52;;;;;;;8.30;4.30;;;;;;;23.50;49.67;99313.38;6091021;23;20022;-87
2023/07/15 05:18:20;;;;;;;10.32;4.25;;;;;;;23.47;49.73;99319.28;6090721;23;20018;-88
2023/07/15 05:20:46;;;;;;;6.47;4.22;;;;;;;23.40;49.96;99308.53;6066712;23;20022;-87
2023/07/15 05:23:14;;;;;;;7.25;4.10;;;;;;;23.40;49.96;99308.53;6067752;23;20378;-88
2023/07/15 05:25:41;;;;;;;8.20;3.90;;;;;;;23.37;50.17;99317.13;6067032;23;20029;-88
2023/07/15 05:28:07;;;;;;;5.65;3.88;;;;;;;23.33;50.03;99313.22;6067258;23;20518;-88
2023/07/15 05:30:36;;;;;;;4.78;4.00;;;;;;;23.32;50.21;99312.38;6090858;23;20025;-87
2023/07/15 05:33:03;;;;;;;7.45;4.70;;;;;;;23.28;50.54;99302.25;6043034;23;20041;-88
2023/07/15 05:35:30;;;;;;;7.15;4.00;;;;;;;23.29;50.80;99307.44;6066727;23;20029;-87
2023/07/15 05:37:57;;;;;;;7.63;4.95;;;;;;;23.29;50.86;99309.34;6066075;23;20029;-86
2023/07/15 05:40:24;;;;;;;4.82;3.97;;;;;;;23.31;50.77;99308.03;6042861;23;20081;-87
2023/07/15 05:42:51;;;;;;;6.65;4.07;;;;;;;23.31;51.04;99308.03;6042576;23;20085;-88
2023/07/15 05:45:17;;;;;;;5.78;4.25;;;;;;;23.28;51.06;99313.06;6090642;23;20345;-87
2023/07/15 05:47:44;;;;;;;8.20;4.30;;;;;;;23.25;50.83;99308.13;6042736;23;20084;-88
2023/07/15 05:50:11;;;;;;;5.03;3.80;;;;;;;23.25;50.88;99306.25;6090944;23;20026;-87
2023/07/15 05:52:38;;;;;;;4.75;3.63;;;;;;;23.27;51.06;99308.72;6019464;23;20026;-87
2023/07/15 05:55:05;;;;;;;5.38;4.13;;;;;;;23.34;51.29;99307.56;6066138;23;20405;-87
2023/07/15 05:57:32;;;;;;;9.23;4.80;;;;;;;23.40;51.57;99305.81;6043533;23;20022;-87
2023/07/15 05:59:59;;;;;;;4.88;3.75;;;;;;;23.45;51.46;99305.13;6090678;23;20475;-88
2023/07/15 06:02:26;;;;;;;8.88;4.30;;;;;;;23.44;51.44;99298.88;6042293;23;20361;-88
2023/07/15 06:04:53;;;;;;;6.70;3.88;;;;;;;23.48;51.29;99308.19;6090260;23;20014;-87
2023/07/15 06:07:20;;;;;;;7.13;3.85;;;;;;;23.52;51.58;99303.94;6067691;23;20045;-87
2023/07/15 06:09:50;;;;;;;5.82;4.07;;;;;;;23.53;51.42;99296.66;6066371;23;20026;-88
2023/07/15 06:12:18;;;;;;;6.35;4.13;;;;;;;23.55;51.34;99300.78;6067152;23;20101;-87
2023/07/15 06:14:44;;;;;;;6.40;4.22;;;;;;;23.57;51.63;99292.41;6090373;23;20092;-88
2023/07/15 06:17:11;;;;;;;6.82;4.07;;;;;;;23.59;51.73;99293.84;6089229;23;20061;-87
2023/07/15 06:19:39;;;;;;;7.55;4.45;;;;;;;23.62;51.66;99298.78;6066189;23;20362;-88
2023/07/15 06:22:06;;;;;;;5.97;4.30;;;;;;;23.64;52.09;99292.31;6043145;23;20022;-88
2023/07/15 06:24:33;;;;;;;8.95;4.43;;;;;;;23.65;51.99;99293.97;6066506;23;20045;-87
2023/07/15 06:27:00;;;;;;;5.55;4.18;;;;;;;23.68;51.93;99282.66;6019401;23;20030;-87
2023/07/15 06:29:27;;;;;;;9.30;4.43;;;;;;;23.66;52.15;99285.59;6067891;23;20041;-86
2023/07/15 06:31:54;;;;;;;6.65;4.32;;;;;;;23.68;52.13;99283.47;6068065;23;20053;-88
2023/07/15 06:34:21;;;;;;;6.35;4.13;;;;;;;23.70;52.15;99277.81;6043681;23;20064;-87
2023/07/15 06:36:48;;;;;;;5.35;4.43;;;;;;;23.73;52.42;99264.63;6068289;23;20022;-88
2023/07/15 06:39:15;;;;;;;6.70;4.40;;;;;;;23.77;52.36;99267.72;6068568;23;20024;-87
2023/07/15 06:41:42;;;;;;;7.25;4.35;;;;;;;23.82;52.34;99270.53;6044184;23;20026;-85
2023/07/15 06:44:09;;;;;;;7.50;4.70;;;;;;;23.79;52.14;99254.75;6043180;23;20758;-85
2023/07/15 06:46:36;;;;;;;4.57;3.83;;;;;;;23.81;52.55;99258.88;6043110;23;20041;-85
2023/07/15 06:49:03;;;;;;;5.82;3.90;;;;;;;23.88;52.62;99256.03;6068115;23;20101;-85
2023/07/15 06:51:29;;;;;;;5.03;4.00;;;;;;;23.91;52.69;99255.56;6043474;23;20028;-85
2023/07/15 06:53:56;;;;;;;6.95;4.20;;;;;;;23.94;52.49;99249.69;6066747;23;20048;-86
2023/07/15 06:56:23;;;;;;;4.53;3.95;;;;;;;23.99;52.64;99257.94;6067999;23;20020;-85
2023/07/15 06:58:51;;;;;;;4.25;3.85;;;;;;;24.04;52.40;99254.47;6116226;23;20018;-85
2023/07/15 07:01:18;;;;;;;8.68;4.38;;;;;;;24.07;52.72;99256.75;6091222;23;20047;-85
2023/07/15 07:03:46;;;;;;;6.97;4.07;;;;;;;24.07;52.36;99251.31;6042394;23;20057;-86
2023/07/15 07:06:13;;;;;;;6.25;4.15;;;;;;;24.15;52.57;99252.84;6067362;23;20025;-85
2023/07/15 07:08:41;;;;;;;6.85;3.90;;;;;;;24.19;52.76;99254.81;6067044;23;20030;-86
2023/07/15 07:11:07;;;;;;;6.70;5.10;;;;;;;24.25;52.64;99239.47;6090851;23;20390;-87
2023/07/15 07:13:34;;;;;;;8.75;4.93;;;;;;;24.34;52.86;99234.50;6066540;23;20030;-86
2023/07/15 07:16:01;;;;;;;4.88;3.95;;;;;;;24.43;52.71;99249.34;6019452;23;20038;-86
2023/07/15 07:18:28;;;;;;;6.35;4.03;;;;;;;24.46;52.59;99251.59;6044280;23;20039;-87
2023/07/15 07:20:56;;;;;;;5.80;3.85;;;;;;;24.48;52.69;99244.88;6067072;23;20308;-86
2023/07/15 07:23:23;;;;;;;6.00;4.13;;;;;;;24.48;52.72;99238.63;6041421;23;20041;-85
2023/07/15 07:25:51;;;;;;;6.20;4.38;;;;;;;24.49;52.54;99245.69;6066872;23;20017;-86
2023/07/15 07:28:24;;;;;;;7.65;4.15;;;;;;;24.49;52.58;99248.41;6067738;23;20021;-85
2023/07/15 07:30:50;;;;;;;;;;;;;;;24.36;52.55;99260.31;6067702;23;20025;-86
2023/07/15 07:33:19;;;;;;;9.00;4.82;;;;;;;24.58;52.41;99260.53;6089639;23;20334;-86
2023/07/15 07:35:46;;;;;;;8.93;5.57;;;;;;;24.67;52.55;99258.25;6090102;23;20509;-85
2023/07/15 07:38:13;;;;;;;6.82;4.50;;;;;;;24.72;52.52;99239.34;6018034;23;20512;-86
2023/07/15 07:40:44;;;;;;;5.15;4.30;;;;;;;24.78;52.83;99248.41;6066216;23;20068;-84
2023/07/15 07:43:11;;;;;;;13.95;6.10;;;;;;;24.84;52.68;99250.16;6065783;23;20030;-86
2023/07/15 07:45:38;;;;;;;5.28;4.63;;;;;;;24.91;52.56;99242.69;6042072;23;20065;-86
2023/07/15 07:48:05;;;;;;;5.80;4.43;;;;;;;24.95;52.86;99243.84;6043324;23;20089;-86
2023/07/15 07:50:33;;;;;;;6.57;4.50;;;;;;;25.00;52.81;99243.09;6065920;23;20026;-86
2023/07/15 07:53:00;;;;;;;5.03;4.53;;;;;;;25.06;52.50;99250.25;6088689;23;20101;-86
2023/07/15 07:55:27;;;;;;;6.43;4.07;;;;;;;25.11;52.53;99253.06;6019067;23;20115;-86
2023/07/15 07:57:54;;;;;;;5.88;3.80;;;;;;;25.11;52.30;99245.78;6042919;23;20036;-86
2023/07/15 08:00:21;;;;;;;8.15;4.93;;;;;;;25.17;52.35;99246.72;6065197;23;20033;-85
2023/07/15 08:02:47;;;;;;;7.10;3.80;;;;;;;25.19;52.29;99246.44;6066150;23;20105;-86
2023/07/15 08:05:14;;;;;;;6.90;4.22;;;;;;;25.22;52.52;99241.34;6042475;23;20022;-85
2023/07/15 08:07:41;;;;;;;8.88;4.15;;;;;;;25.22;52.02;99240.53;6042904;23;20350;-85
2023/07/15 08:10:08;;;;;;;7.00;4.57;;;;;;;25.23;52.07;99245.72;6042711;23;20018;-84
2023/07/15 08:12:35;;;;;;;5.63;4.70;;;;;;;25.22;51.49;99244.06;6041459;23;20712;-86
2023/07/15 08:15:03;;;;;;;8.75;4.78;;;;;;;25.22;51.59;99251.41;6066300;23;20029;-87
2023/07/15 08:17:34;;;;;;;4.70;3.90;;;;;;;25.20;51.68;99254.38;6068980;23;20450;-87
2023/07/15 08:20:02;;;;;;;7.82;4.75;;;;;;;25.19;51.70;99252.72;6064715;23;20340;-86
2023/07/15 08:22:29;;;;;;;5.93;4.22;;;;;;;25.24;52.19;99249.25;6043095;23;20076;-87
2023/07/15 08:24:56;;;;;;;5.43;4.20;;;;;;;25.25;52.45;99254.44;6088785;23;20030;-86
2023/07/15 08:27:23;;;;;;;7.72;3.92;;;;;;;25.24;52.81;99249.25;6066763;23;20022;-86
2023/07/15 08:29:49;;;;;;;6.03;4.53;;;;;;;25.25;53.05;99250.91;6066364;23;20076;-86
2023/07/15 08:32:16;;;;;;;5.07;4.18;;;;;;;25.28;52.98;99256.66;6089932;23;20021;-85
2023/07/15 08:34:59;;;;;;;6.75;4.45;;;;;;;25.24;53.83;99260.13;6041674;23;20029;-86
2023/07/15 08:37:26;;;;;;;6.07;3.85;;;;;;;25.32;54.07;99262.44;6064582;23;20045;-88
2023/07/15 08:39:53;;;;;;;10.25;5.47;;;;;;;25.33;53.87;99259.47;6043078;23;21015;-86
2023/07/15 08:42:20;;;;;;;6.95;4.70;;;;;;;25.34;53.67;99250.25;6066084;23;20041;-87
2023/07/15 08:44:48;;;;;;;6.45;4.50;;;;;;;25.38;53.80;99250.56;6065057;23;20782;-84
2023/07/15 08:47:22;;;;;;;7.93;5.03;;;;;;;25.43;54.19;99252.56;6066543;23;20056;-84
2023/07/15 08:49:50;;;;;;;11.60;4.95;;;;;;;25.52;52.67;99249.19;6064970;23;20025;-84
2023/07/15 08:52:18;;;;;;;12.00;4.75;;;;;;;25.57;52.78;99243.00;6066668;23;20022;-84
2023/07/15 08:54:52;;;;;;;7.90;5.25;;;;;;;25.60;52.93;99242.50;6040067;23;20101;-87
2023/07/15 08:57:22;;;;;;;7.82;4.80;;;;;;;25.67;52.26;99247.75;6066267;23;20088;-86
2023/07/15 08:59:56;;;;;;;5.13;4.30;;;;;;;25.68;52.05;99238.53;6041669;23;20029;-86
2023/07/15 09:02:23;;;;;;;6.93;4.80;;;;;;;25.70;52.25;99241.84;6066580;23;20030;-86
2023/07/15 09:04:50;;;;;;;8.70;4.72;;;;;;;25.74;52.48;99246.50;6063913;23;20025;-84
2023/07/15 09:07:25;;;;;;;9.93;4.35;;;;;;;25.74;51.53;99248.41;6066100;23;20350;-85
2023/07/15 09:09:52;;;;;;;6.57;4.55;;;;;;;25.80;51.42;99254.75;6042161;23;20032;-86
2023/07/15 09:12:23;;;;;;;6.05;4.18;;;;;;;25.85;51.13;99255.69;6041373;23;20135;-85
2023/07/15 09:14:51;;;;;;;6.25;4.53;;;;;;;25.93;50.71;99257.16;6064505;23;20022;-86
2023/07/15 09:17:21;;;;;;;5.93;4.03;;;;;;;26.02;50.24;99255.66;6066514;23;20030;-84
2023/07/15 09:19:48;;;;;;;5.63;4.60;;;;;;;26.12;50.72;99257.69;6066289;23;20045;-85
2023/07/15 09:22:16;;;;;;;9.85;4.88;;;;;;;26.19;50.07;99255.59;6040765;23;20085;-87
2023/07/15 09:24:43;;;;;;;9.80;4.85;;;;;;;26.27;49.66;99257.06;6064466;23;20104;-85
2023/07/15 09:27:10;;;;;;;7.28;4.78;;;;;;;26.30;49.62;99253.84;6066024;23;20024;-86
2023/07/15 09:29:37;;;;;;;9.05;5.18;;;;;;;26.35;49.09;99243.00;6042439;23;20788;-87
2023/07/15 09:32:06;;;;;;;11.65;4.88;;;;;;;26.38;49.39;99247.94;6041649;23;20036;-86
2023/07/15 09:34:39;;;;;;;11.93;5.60;;;;;;;26.45;49.72;99245.03;6041397;23;20030;-87
2023/07/15 09:37:06;;;;;;;7.70;4.85;;;;;;;26.50;49.53;99245.09;6065049;23;20052;-87
2023/07/15 09:39:32;;;;;;;6.00;4.53;;;;;;;26.55;49.45;99248.72;6040975;23;20041;-86
2023/07/15 09:42:04;;;;;;;8.00;5.13;;;;;;;26.56;48.57;99242.22;6041627;23;20026;-85
2023/07/15 09:44:39;;;;;;;6.93;4.82;;;;;;;26.63;49.02;99244.72;6064888;23;20073;-85
2023/07/15 09:47:07;;;;;;;7.45;4.88;;;;;;;26.70;48.85;99244.53;6089245;23;20085;-86
2023/07/15 09:49:34;;;;;;;7.63;4.90;;;;;;;26.72;49.26;99234.22;6087859;23;20022;-86
2023/07/15 09:52:03;;;;;;;7.22;4.63;;;;;;;26.78;48.76;99244.06;6065852;23;20097;-86
2023/07/15 09:54:32;;;;;;;7.13;4.82;;;;;;;26.85;49.19;99242.78;6088886;23;20032;-86
2023/07/15 09:57:03;;;;;;;8.02;4.40;;;;;;;26.94;48.23;99243.13;6064696;23;20786;-86
2023/07/15 09:59:34;;;;;;;5.78;4.50;;;;;;;27.00;47.86;99231.22;6065741;23;20131;-86
2023/07/15 10:02:31;;;;;;;8.75;4.97;;;;;;;27.00;47.35;99224.97;6088853;23;20030;-85
2023/07/15 10:05:03;;;;;;;7.22;4.57;;;;;;;27.10;46.90;99221.50;6061259;23;20061;-86
2023/07/15 10:07:30;;;;;;;5.70;4.30;;;;;;;27.15;47.00;99210.66;6066628;23;20476;-85
2023/07/15 10:09:58;;;;;;;8.27;4.72;;;;;;;27.18;46.40;99210.16;6092132;23;20401;-85
2023/07/15 10:12:28;;;;;;;7.07;4.40;;;;;;;27.22;46.57;99203.94;6090347;23;20089;-85
2023/07/15 10:14:56;;;;;;;7.05;4.28;;;;;;;27.32;45.52;99203.16;6019175;23;20044;-85
2023/07/15 10:17:23;;;;;;;5.32;4.18;;;;;;;27.40;45.31;99210.88;6067560;23;20026;-86
2023/07/15 10:19:52;;;;;;;12.43;4.70;;;;;;;27.46;45.44;99198.91;6042719;23;20445;-84
2023/07/15 10:22:21;;;;;;;8.65;4.70;;;;;;;27.53;45.05;99209.59;6090938;23;20040;-85
2023/07/15 10:24:55;;;;;;;6.90;4.57;;;;;;;27.48;45.44;99213.09;6041661;23;20026;-85
2023/07/15 10:27:26;;;;;;;8.43;4.10;;;;;;;27.47;45.29;99225.09;6067049;23;20022;-84
2023/07/15 10:30:19;;;;;;;6.30;4.13;;;;;;;27.40;45.52;99223.66;6090972;23;20025;-85
2023/07/15 10:33:05;;;;;;;;;;;;;;;27.34;46.07;99217.34;6042639;23;20049;-86
2023/07/15 10:35:41;;;;;;;6.88;4.05;;;;;;;27.46;45.31;99203.56;6090134;23;19916;-85
2023/07/15 10:38:23;;;;;;;6.75;4.28;;;;;;;27.54;45.59;99202.25;6090347;23;20335;-85
2023/07/15 10:40:55;;;;;;;5.93;4.28;;;;;;;27.63;44.59;99200.63;6090159;23;20339;-85
2023/07/15 10:43:24;;;;;;;6.90;4.67;;;;;;;27.69;43.83;99205.06;6066208;23;20469;-86
2023/07/15 10:45:54;;;;;;;6.63;4.20;;;;;;;27.73;43.46;99203.44;6091304;23;20026;-85
2023/07/15 10:48:22;;;;;;;6.60;4.15;;;;;;;27.76;44.13;99202.09;6065556;23;20026;-85
2023/07/15 10:50:52;;;;;;;9.48;5.38;;;;;;;27.80;43.73;99193.09;6090457;23;20032;-86
2023/07/15 10:53:22;;;;;;;4.68;3.80;;;;;;;27.85;43.29;99197.81;6091097;23;20342;-85
2023/07/15 10:56:00;;;;;;;6.80;4.40;;;;;;;27.88;42.97;99189.91;6092066;23;20021;-86
2023/07/15 10:58:28;;;;;;;5.82;4.55;;;;;;;27.98;42.68;99191.06;6090168;23;20093;-86
2023/07/15 11:01:05;;;;;;;8.10;4.40;;;;;;;27.98;43.20;99194.59;6042056;23;20924;-85
2023/07/15 11:03:35;;;;;;;8.32;3.90;;;;;;;28.03;42.73;99202.81;6089534;23;20025;-86
2023/07/15 11:06:03;;;;;;;7.90;4.47;;;;;;;28.06;42.94;99201.44;6067614;23;20347;-85
2023/07/15 11:08:34;;;;;;;5.80;4.40;;;;;;;28.09;42.74;99203.69;6091936;23;20028;-86
2023/07/15 11:11:06;;;;;;;5.20;4.00;;;;;;;28.13;42.72;99215.69;6066867;23;20022;-87
2023/07/15 11:13:37;;;;;;;8.25;4.47;;;;;;;28.17;42.34;99197.69;6088511;23;20035;-87
2023/07/15 11:16:04;;;;;;;8.00;4.00;;;;;;;28.22;41.93;99191.44;6088675;23;20089;-87
2023/07/15 11:18:31;;;;;;;5.38;4.35;;;;;;;28.26;42.82;99193.34;6065842;23;20022;-86
2023/07/15 11:20:59;;;;;;;7.20;4.38;;;;;;;28.31;42.38;99198.81;6066084;23;20466;-86
2023/07/15 11:23:30;;;;;;;4.70;4.10;;;;;;;28.29;41.92;99211.94;6066215;23;20017;-88
2023/07/15 11:25:58;;;;;;;7.63;4.13;;;;;;;28.33;42.07;99199.38;6066426;23;20033;-88
2023/07/15 11:28:25;;;;;;;9.65;4.47;;;;;;;28.37;42.08;99202.41;6089591;23;20402;-86
2023/07/15 11:30:52;;;;;;;8.50;3.72;;;;;;;28.39;42.28;99186.56;6066174;23;20640;-86
2023/07/15 11:33:19;;;;;;;8.15;4.38;;;;;;;28.43;42.14;99197.78;6042151;23;20481;-86
2023/07/15 11:35:46;;;;;;;5.75;3.95;;;;;;;28.47;42.47;99177.06;6066262;23;20056;-86
2023/07/15 11:38:28;;;;;;;5.55;3.70;;;;;;;28.42;41.99;99174.28;6042284;23;20030;-86
2023/07/15 11:40:56;;;;;;;7.60;4.17;;;;;;;28.52;41.41;99164.25;6116413;23;20088;-84